sensor_id;sensor_type;location;lat;lon;timestamp;P1;durP1;ratioP1;P2;durP2;ratioP2
67274;SDS011;55463;52.324;5.122;2022-07-30T00:01:05;19.23;;;5.40;;
67274;SDS011;55463;52.324;5.122;2022-07-30T00:03:31;15.52;;;5.35;;
67274;SDS011;55463;52.324;5.122;2022-07-30T00:05:57;14.55;;;5.25;;
67274;SDS011;55463;52.324;5.122;2022-07-30T00:08:23;9.65;;;4.60;;
67274;SDS011;55463;52.324;5.122;2022-07-30T00:10:49;13.82;;;4.68;;
67274;SDS011;55463;52.324;5.122;2022-07-30T00:13:15;11.48;;;4.72;;
67274;SDS011;55463;52.324;5.122;2022-07-30T00:15:41;17.58;;;4.38;;
67274;SDS011;55463;52.324;5.122;2022-07-30T00:18:06;8.25;;;4.80;;
67274;SDS011;55463;52.324;5.122;2022-07-30T00:20:32;8.07;;;4.45;;
67274;SDS011;55463;52.324;5.122;2022-07-30T00:22:57;13.88;;;4.30;;
67274;SDS011;55463;52.324;5.122;2022-07-30T00:25:27;16.83;;;4.77;;
67274;SDS011;55463;52.324;5.122;2022-07-30T00:27:53;14.20;;;4.53;;
67274;SDS011;55463;52.324;5.122;2022-07-30T00:30:18;19.40;;;4.95;;
67274;SDS011;55463;52.324;5.122;2022-07-30T00:32:44;13.27;;;4.60;;
67274;SDS011;55463;52.324;5.122;2022-07-30T00:35:09;12.45;;;5.25;;
67274;SDS011;55463;52.324;5.122;2022-07-30T00:37:34;12.35;;;4.78;;
67274;SDS011;55463;52.324;5.122;2022-07-30T00:40:00;20.13;;;5.55;;
67274;SDS011;55463;52.324;5.122;2022-07-30T00:42:35;19.30;;;4.60;;
67274;SDS011;55463;52.324;5.122;2022-07-30T00:45:05;10.68;;;4.90;;
67274;SDS011;55463;52.324;5.122;2022-07-30T00:47:32;12.73;;;4.45;;
67274;SDS011;55463;52.324;5.122;2022-07-30T00:49:57;17.67;;;5.25;;
67274;SDS011;55463;52.324;5.122;2022-07-30T00:52:23;12.55;;;4.47;;
67274;SDS011;55463;52.324;5.122;2022-07-30T00:54:48;12.35;;;4.68;;
67274;SDS011;55463;52.324;5.122;2022-07-30T00:57:13;9.73;;;4.80;;
67274;SDS011;55463;52.324;5.122;2022-07-30T00:59:39;12.38;;;4.45;;
67274;SDS011;55463;52.324;5.122;2022-07-30T01:02:04;13.15;;;4.35;;
67274;SDS011;55463;52.324;5.122;2022-07-30T01:04:29;8.35;;;4.28;;
67274;SDS011;55463;52.324;5.122;2022-07-30T01:06:55;14.25;;;4.90;;
67274;SDS011;55463;52.324;5.122;2022-07-30T01:09:20;13.77;;;5.20;;
67274;SDS011;55463;52.324;5.122;2022-07-30T01:11:46;7.70;;;4.07;;
67274;SDS011;55463;52.324;5.122;2022-07-30T01:14:11;9.63;;;4.53;;
67274;SDS011;55463;52.324;5.122;2022-07-30T01:16:38;9.20;;;4.57;;
67274;SDS011;55463;52.324;5.122;2022-07-30T01:19:08;9.48;;;4.30;;
67274;SDS011;55463;52.324;5.122;2022-07-30T01:28:03;7.30;;;4.30;;
67274;SDS011;55463;52.324;5.122;2022-07-30T01:30:31;8.68;;;4.50;;
67274;SDS011;55463;52.324;5.122;2022-07-30T01:33:00;9.60;;;4.85;;
67274;SDS011;55463;52.324;5.122;2022-07-30T01:35:28;12.00;;;4.93;;
67274;SDS011;55463;52.324;5.122;2022-07-30T01:37:56;8.68;;;4.25;;
67274;SDS011;55463;52.324;5.122;2022-07-30T01:40:24;10.57;;;4.47;;
67274;SDS011;55463;52.324;5.122;2022-07-30T01:42:52;6.55;;;3.92;;
67274;SDS011;55463;52.324;5.122;2022-07-30T01:45:21;10.38;;;4.28;;
67274;SDS011;55463;52.324;5.122;2022-07-30T01:47:47;16.08;;;4.47;;
67274;SDS011;55463;52.324;5.122;2022-07-30T01:50:15;12.68;;;4.55;;
67274;SDS011;55463;52.324;5.122;2022-07-30T01:52:42;7.97;;;4.10;;
67274;SDS011;55463;52.324;5.122;2022-07-30T01:55:11;12.10;;;4.57;;
67274;SDS011;55463;52.324;5.122;2022-07-30T01:57:39;9.32;;;4.70;;
67274;SDS011;55463;52.324;5.122;2022-07-30T02:00:06;9.80;;;5.05;;
67274;SDS011;55463;52.324;5.122;2022-07-30T02:02:35;8.95;;;4.03;;
67274;SDS011;55463;52.324;5.122;2022-07-30T02:05:02;8.05;;;4.43;;
67274;SDS011;55463;52.324;5.122;2022-07-30T02:07:32;11.63;;;4.80;;
67274;SDS011;55463;52.324;5.122;2022-07-30T02:10:13;10.13;;;4.30;;
67274;SDS011;55463;52.324;5.122;2022-07-30T02:12:45;12.60;;;4.72;;
67274;SDS011;55463;52.324;5.122;2022-07-30T02:17:49;13.60;;;5.13;;
67274;SDS011;55463;52.324;5.122;2022-07-30T02:20:20;9.52;;;4.15;;
67274;SDS011;55463;52.324;5.122;2022-07-30T02:22:50;13.32;;;4.18;;
67274;SDS011;55463;52.324;5.122;2022-07-30T02:25:20;8.75;;;4.75;;
67274;SDS011;55463;52.324;5.122;2022-07-30T02:27:48;6.60;;;4.45;;
67274;SDS011;55463;52.324;5.122;2022-07-30T02:30:16;14.55;;;5.57;;
67274;SDS011;55463;52.324;5.122;2022-07-30T02:32:42;10.15;;;5.35;;
67274;SDS011;55463;52.324;5.122;2022-07-30T02:35:13;12.93;;;5.55;;
67274;SDS011;55463;52.324;5.122;2022-07-30T02:37:42;11.00;;;5.13;;
67274;SDS011;55463;52.324;5.122;2022-07-30T02:40:14;12.00;;;5.47;;
67274;SDS011;55463;52.324;5.122;2022-07-30T02:42:42;8.95;;;5.63;;
67274;SDS011;55463;52.324;5.122;2022-07-30T02:45:10;9.65;;;5.18;;
67274;SDS011;55463;52.324;5.122;2022-07-30T02:47:37;11.32;;;5.90;;
67274;SDS011;55463;52.324;5.122;2022-07-30T02:50:03;12.90;;;5.82;;
67274;SDS011;55463;52.324;5.122;2022-07-30T02:52:31;12.52;;;5.43;;
67274;SDS011;55463;52.324;5.122;2022-07-30T02:54:58;12.10;;;6.13;;
67274;SDS011;55463;52.324;5.122;2022-07-30T02:57:26;15.57;;;5.50;;
67274;SDS011;55463;52.324;5.122;2022-07-30T02:59:52;14.43;;;6.03;;
67274;SDS011;55463;52.324;5.122;2022-07-30T03:02:22;11.35;;;5.30;;
67274;SDS011;55463;52.324;5.122;2022-07-30T03:04:49;9.38;;;5.10;;
67274;SDS011;55463;52.324;5.122;2022-07-30T03:07:14;17.23;;;5.50;;
67274;SDS011;55463;52.324;5.122;2022-07-30T03:09:41;8.32;;;4.95;;
67274;SDS011;55463;52.324;5.122;2022-07-30T03:12:09;7.85;;;4.80;;
67274;SDS011;55463;52.324;5.122;2022-07-30T03:14:37;9.52;;;4.80;;
67274;SDS011;55463;52.324;5.122;2022-07-30T03:17:02;14.57;;;5.22;;
67274;SDS011;55463;52.324;5.122;2022-07-30T03:19:30;17.70;;;4.80;;
67274;SDS011;55463;52.324;5.122;2022-07-30T03:21:58;9.68;;;5.10;;
67274;SDS011;55463;52.324;5.122;2022-07-30T03:24:26;16.27;;;5.07;;
67274;SDS011;55463;52.324;5.122;2022-07-30T03:26:53;7.57;;;4.72;;
67274;SDS011;55463;52.324;5.122;2022-07-30T03:29:21;7.13;;;4.43;;
67274;SDS011;55463;52.324;5.122;2022-07-30T03:31:48;12.70;;;4.32;;
67274;SDS011;55463;52.324;5.122;2022-07-30T03:34:15;11.52;;;4.88;;
67274;SDS011;55463;52.324;5.122;2022-07-30T03:36:42;9.32;;;4.30;;
67274;SDS011;55463;52.324;5.122;2022-07-30T03:39:07;10.98;;;4.25;;
67274;SDS011;55463;52.324;5.122;2022-07-30T03:41:34;9.10;;;4.13;;
67274;SDS011;55463;52.324;5.122;2022-07-30T03:44:00;11.85;;;4.38;;
67274;SDS011;55463;52.324;5.122;2022-07-30T03:46:26;11.43;;;4.55;;
67274;SDS011;55463;52.324;5.122;2022-07-30T03:48:52;10.35;;;5.05;;
67274;SDS011;55463;52.324;5.122;2022-07-30T03:51:18;10.50;;;4.63;;
67274;SDS011;55463;52.324;5.122;2022-07-30T03:53:44;12.57;;;4.30;;
67274;SDS011;55463;52.324;5.122;2022-07-30T03:56:10;15.43;;;5.00;;
67274;SDS011;55463;52.324;5.122;2022-07-30T03:58:37;17.95;;;5.07;;
67274;SDS011;55463;52.324;5.122;2022-07-30T04:01:03;11.10;;;4.55;;
67274;SDS011;55463;52.324;5.122;2022-07-30T04:03:29;9.98;;;5.03;;
67274;SDS011;55463;52.324;5.122;2022-07-30T04:05:58;11.10;;;4.80;;
67274;SDS011;55463;52.324;5.122;2022-07-30T04:08:25;11.60;;;5.13;;
67274;SDS011;55463;52.324;5.122;2022-07-30T04:10:52;15.23;;;5.28;;
67274;SDS011;55463;52.324;5.122;2022-07-30T04:13:18;10.32;;;5.07;;
67274;SDS011;55463;52.324;5.122;2022-07-30T04:15:47;10.50;;;5.95;;
67274;SDS011;55463;52.324;5.122;2022-07-30T04:18:18;13.20;;;5.93;;
67274;SDS011;55463;52.324;5.122;2022-07-30T04:20:45;7.53;;;5.60;;
67274;SDS011;55463;52.324;5.122;2022-07-30T04:23:13;10.77;;;5.68;;
67274;SDS011;55463;52.324;5.122;2022-07-30T04:25:39;14.55;;;6.03;;
67274;SDS011;55463;52.324;5.122;2022-07-30T04:28:08;13.68;;;6.22;;
67274;SDS011;55463;52.324;5.122;2022-07-30T04:30:34;9.00;;;5.43;;
67274;SDS011;55463;52.324;5.122;2022-07-30T04:33:01;9.80;;;5.57;;
67274;SDS011;55463;52.324;5.122;2022-07-30T04:35:31;11.32;;;5.63;;
67274;SDS011;55463;52.324;5.122;2022-07-30T04:37:57;10.10;;;5.53;;
67274;SDS011;55463;52.324;5.122;2022-07-30T04:40:24;11.95;;;6.20;;
67274;SDS011;55463;52.324;5.122;2022-07-30T04:42:49;7.28;;;5.47;;
67274;SDS011;55463;52.324;5.122;2022-07-30T04:45:15;16.13;;;5.93;;
67274;SDS011;55463;52.324;5.122;2022-07-30T04:47:44;18.67;;;6.85;;
67274;SDS011;55463;52.324;5.122;2022-07-30T04:50:10;12.52;;;5.93;;
67274;SDS011;55463;52.324;5.122;2022-07-30T04:52:37;13.68;;;6.40;;
67274;SDS011;55463;52.324;5.122;2022-07-30T04:55:03;16.42;;;6.47;;
67274;SDS011;55463;52.324;5.122;2022-07-30T04:57:30;13.27;;;6.55;;
67274;SDS011;55463;52.324;5.122;2022-07-30T04:59:58;9.80;;;5.90;;
67274;SDS011;55463;52.324;5.122;2022-07-30T05:02:24;19.27;;;6.43;;
67274;SDS011;55463;52.324;5.122;2022-07-30T05:04:53;13.43;;;6.13;;
67274;SDS011;55463;52.324;5.122;2022-07-30T05:07:19;15.13;;;6.40;;
67274;SDS011;55463;52.324;5.122;2022-07-30T05:09:45;11.18;;;5.93;;
67274;SDS011;55463;52.324;5.122;2022-07-30T05:12:11;9.20;;;5.45;;
67274;SDS011;55463;52.324;5.122;2022-07-30T05:14:37;11.90;;;5.35;;
67274;SDS011;55463;52.324;5.122;2022-07-30T05:17:02;12.68;;;5.20;;
67274;SDS011;55463;52.324;5.122;2022-07-30T05:19:27;7.85;;;3.95;;
67274;SDS011;55463;52.324;5.122;2022-07-30T05:21:53;9.93;;;4.50;;
67274;SDS011;55463;52.324;5.122;2022-07-30T05:24:18;14.75;;;4.20;;
67274;SDS011;55463;52.324;5.122;2022-07-30T05:26:44;8.32;;;3.60;;
67274;SDS011;55463;52.324;5.122;2022-07-30T05:29:09;7.90;;;3.92;;
67274;SDS011;55463;52.324;5.122;2022-07-30T05:31:35;16.77;;;3.80;;
67274;SDS011;55463;52.324;5.122;2022-07-30T05:34:01;7.72;;;3.90;;
67274;SDS011;55463;52.324;5.122;2022-07-30T05:36:27;11.10;;;5.57;;
67274;SDS011;55463;52.324;5.122;2022-07-30T05:38:52;10.80;;;5.55;;
67274;SDS011;55463;52.324;5.122;2022-07-30T05:41:17;10.40;;;6.20;;
67274;SDS011;55463;52.324;5.122;2022-07-30T05:43:43;11.10;;;6.43;;
67274;SDS011;55463;52.324;5.122;2022-07-30T05:46:08;14.27;;;6.93;;
67274;SDS011;55463;52.324;5.122;2022-07-30T05:48:33;9.85;;;6.28;;
67274;SDS011;55463;52.324;5.122;2022-07-30T05:51:01;11.02;;;5.80;;
67274;SDS011;55463;52.324;5.122;2022-07-30T05:53:26;10.85;;;5.93;;
67274;SDS011;55463;52.324;5.122;2022-07-30T05:55:52;11.20;;;5.40;;
67274;SDS011;55463;52.324;5.122;2022-07-30T05:58:17;11.18;;;4.90;;
67274;SDS011;55463;52.324;5.122;2022-07-30T06:00:43;9.20;;;4.47;;
67274;SDS011;55463;52.324;5.122;2022-07-30T06:06:12;8.50;;;3.17;;
67274;SDS011;55463;52.324;5.122;2022-07-30T06:08:55;8.88;;;3.50;;
67274;SDS011;55463;52.324;5.122;2022-07-30T06:11:36;10.95;;;3.25;;
67274;SDS011;55463;52.324;5.122;2022-07-30T06:20:23;5.53;;;2.63;;
67274;SDS011;55463;52.324;5.122;2022-07-30T06:30:13;8.43;;;2.40;;
67274;SDS011;55463;52.324;5.122;2022-07-30T06:36:33;5.55;;;2.00;;
67274;SDS011;55463;52.324;5.122;2022-07-30T06:38:59;3.95;;;1.90;;
67274;SDS011;55463;52.324;5.122;2022-07-30T06:41:37;7.28;;;2.75;;
67274;SDS011;55463;52.324;5.122;2022-07-30T06:44:12;8.57;;;2.20;;
67274;SDS011;55463;52.324;5.122;2022-07-30T06:46:45;6.90;;;2.10;;
67274;SDS011;55463;52.324;5.122;2022-07-30T06:49:10;5.10;;;1.77;;
67274;SDS011;55463;52.324;5.122;2022-07-30T06:51:36;5.13;;;1.80;;
67274;SDS011;55463;52.324;5.122;2022-07-30T06:54:01;4.18;;;2.05;;
67274;SDS011;55463;52.324;5.122;2022-07-30T06:56:26;6.18;;;2.03;;
67274;SDS011;55463;52.324;5.122;2022-07-30T06:58:52;3.45;;;1.80;;
67274;SDS011;55463;52.324;5.122;2022-07-30T07:01:17;9.40;;;2.20;;
67274;SDS011;55463;52.324;5.122;2022-07-30T07:03:53;8.70;;;2.08;;
67274;SDS011;55463;52.324;5.122;2022-07-30T07:07:08;4.32;;;1.63;;
67274;SDS011;55463;52.324;5.122;2022-07-30T07:09:48;6.05;;;1.90;;
67274;SDS011;55463;52.324;5.122;2022-07-30T07:12:32;4.13;;;2.10;;
67274;SDS011;55463;52.324;5.122;2022-07-30T07:14:58;5.63;;;1.95;;
67274;SDS011;55463;52.324;5.122;2022-07-30T07:17:24;5.53;;;1.95;;
67274;SDS011;55463;52.324;5.122;2022-07-30T07:19:49;2.88;;;2.00;;
67274;SDS011;55463;52.324;5.122;2022-07-30T07:22:15;2.20;;;1.83;;
67274;SDS011;55463;52.324;5.122;2022-07-30T07:24:40;6.60;;;2.28;;
67274;SDS011;55463;52.324;5.122;2022-07-30T07:27:08;5.35;;;2.47;;
67274;SDS011;55463;52.324;5.122;2022-07-30T07:29:34;6.32;;;2.00;;
67274;SDS011;55463;52.324;5.122;2022-07-30T07:31:59;4.47;;;1.95;;
67274;SDS011;55463;52.324;5.122;2022-07-30T07:34:25;4.63;;;2.45;;
67274;SDS011;55463;52.324;5.122;2022-07-30T07:36:50;10.18;;;2.15;;
67274;SDS011;55463;52.324;5.122;2022-07-30T07:39:15;3.63;;;1.65;;
67274;SDS011;55463;52.324;5.122;2022-07-30T07:41:41;6.32;;;2.08;;
67274;SDS011;55463;52.324;5.122;2022-07-30T07:44:06;4.38;;;1.77;;
67274;SDS011;55463;52.324;5.122;2022-07-30T07:46:31;5.07;;;1.98;;
67274;SDS011;55463;52.324;5.122;2022-07-30T07:48:57;3.17;;;2.10;;
67274;SDS011;55463;52.324;5.122;2022-07-30T07:51:23;5.25;;;2.00;;
67274;SDS011;55463;52.324;5.122;2022-07-30T07:53:48;5.20;;;1.80;;
67274;SDS011;55463;52.324;5.122;2022-07-30T07:56:13;6.82;;;2.20;;
67274;SDS011;55463;52.324;5.122;2022-07-30T07:58:39;4.13;;;1.88;;
67274;SDS011;55463;52.324;5.122;2022-07-30T08:01:04;8.20;;;2.35;;
67274;SDS011;55463;52.324;5.122;2022-07-30T08:03:30;5.53;;;2.15;;
67274;SDS011;55463;52.324;5.122;2022-07-30T08:05:56;6.43;;;1.70;;
67274;SDS011;55463;52.324;5.122;2022-07-30T08:08:21;6.90;;;2.95;;
67274;SDS011;55463;52.324;5.122;2022-07-30T08:10:47;4.75;;;2.13;;
67274;SDS011;55463;52.324;5.122;2022-07-30T08:13:12;5.10;;;1.67;;
67274;SDS011;55463;52.324;5.122;2022-07-30T08:15:39;5.05;;;1.80;;
67274;SDS011;55463;52.324;5.122;2022-07-30T08:18:04;7.47;;;2.20;;
67274;SDS011;55463;52.324;5.122;2022-07-30T08:20:31;5.65;;;1.80;;
67274;SDS011;55463;52.324;5.122;2022-07-30T08:22:57;5.20;;;1.70;;
67274;SDS011;55463;52.324;5.122;2022-07-30T08:25:22;5.00;;;1.50;;
67274;SDS011;55463;52.324;5.122;2022-07-30T08:27:48;3.95;;;1.73;;
67274;SDS011;55463;52.324;5.122;2022-07-30T08:30:13;4.30;;;1.75;;
67274;SDS011;55463;52.324;5.122;2022-07-30T08:32:39;2.95;;;1.65;;
67274;SDS011;55463;52.324;5.122;2022-07-30T08:35:04;3.50;;;1.50;;
67274;SDS011;55463;52.324;5.122;2022-07-30T08:37:30;4.45;;;1.80;;
67274;SDS011;55463;52.324;5.122;2022-07-30T08:39:55;7.10;;;1.70;;
67274;SDS011;55463;52.324;5.122;2022-07-30T08:42:21;3.13;;;1.70;;
67274;SDS011;55463;52.324;5.122;2022-07-30T08:44:47;2.90;;;1.67;;
67274;SDS011;55463;52.324;5.122;2022-07-30T08:47:15;2.92;;;1.60;;
67274;SDS011;55463;52.324;5.122;2022-07-30T08:49:43;4.53;;;2.25;;
67274;SDS011;55463;52.324;5.122;2022-07-30T08:52:09;3.10;;;1.60;;
67274;SDS011;55463;52.324;5.122;2022-07-30T08:54:35;5.10;;;2.05;;
67274;SDS011;55463;52.324;5.122;2022-07-30T08:57:01;5.20;;;1.80;;
67274;SDS011;55463;52.324;5.122;2022-07-30T08:59:26;3.20;;;1.60;;
67274;SDS011;55463;52.324;5.122;2022-07-30T09:01:52;5.72;;;2.10;;
67274;SDS011;55463;52.324;5.122;2022-07-30T09:04:18;3.70;;;2.10;;
67274;SDS011;55463;52.324;5.122;2022-07-30T09:06:43;10.70;;;4.18;;
67274;SDS011;55463;52.324;5.122;2022-07-30T09:09:09;5.70;;;2.13;;
67274;SDS011;55463;52.324;5.122;2022-07-30T09:11:34;3.65;;;1.98;;
67274;SDS011;55463;52.324;5.122;2022-07-30T09:14:06;4.63;;;1.88;;
67274;SDS011;55463;52.324;5.122;2022-07-30T09:16:33;3.10;;;1.70;;
67274;SDS011;55463;52.324;5.122;2022-07-30T09:19:00;5.47;;;1.75;;
67274;SDS011;55463;52.324;5.122;2022-07-30T09:24:05;5.07;;;1.90;;
67274;SDS011;55463;52.324;5.122;2022-07-30T09:26:51;5.18;;;1.80;;
67274;SDS011;55463;52.324;5.122;2022-07-30T09:29:22;4.60;;;1.88;;
67274;SDS011;55463;52.324;5.122;2022-07-30T09:31:59;5.22;;;1.75;;
67274;SDS011;55463;52.324;5.122;2022-07-30T09:34:33;5.28;;;1.80;;
67274;SDS011;55463;52.324;5.122;2022-07-30T09:37:00;3.25;;;1.80;;
67274;SDS011;55463;52.324;5.122;2022-07-30T09:39:41;6.32;;;1.88;;
67274;SDS011;55463;52.324;5.122;2022-07-30T09:42:17;4.40;;;1.73;;
67274;SDS011;55463;52.324;5.122;2022-07-30T09:44:47;6.30;;;1.55;;
67274;SDS011;55463;52.324;5.122;2022-07-30T09:47:29;1.88;;;1.50;;
67274;SDS011;55463;52.324;5.122;2022-07-30T09:50:20;2.22;;;2.03;;
67274;SDS011;55463;52.324;5.122;2022-07-30T09:52:46;5.22;;;1.60;;
67274;SDS011;55463;52.324;5.122;2022-07-30T09:55:13;8.52;;;2.10;;
67274;SDS011;55463;52.324;5.122;2022-07-30T09:57:53;3.38;;;1.73;;
67274;SDS011;55463;52.324;5.122;2022-07-30T10:00:21;3.03;;;1.65;;
67274;SDS011;55463;52.324;5.122;2022-07-30T10:02:48;2.30;;;1.73;;
67274;SDS011;55463;52.324;5.122;2022-07-30T10:05:15;3.55;;;1.73;;
67274;SDS011;55463;52.324;5.122;2022-07-30T10:10:15;5.97;;;1.60;;
67274;SDS011;55463;52.324;5.122;2022-07-30T10:12:41;2.72;;;1.70;;
67274;SDS011;55463;52.324;5.122;2022-07-30T10:15:08;4.82;;;1.90;;
67274;SDS011;55463;52.324;5.122;2022-07-30T10:17:34;1.63;;;1.52;;
67274;SDS011;55463;52.324;5.122;2022-07-30T10:20:03;4.72;;;1.80;;
67274;SDS011;55463;52.324;5.122;2022-07-30T10:22:31;9.38;;;1.77;;
67274;SDS011;55463;52.324;5.122;2022-07-30T10:24:58;5.63;;;2.00;;
67274;SDS011;55463;52.324;5.122;2022-07-30T10:27:24;4.95;;;1.77;;
67274;SDS011;55463;52.324;5.122;2022-07-30T10:29:50;5.53;;;2.08;;
67274;SDS011;55463;52.324;5.122;2022-07-30T10:32:16;3.08;;;1.70;;
67274;SDS011;55463;52.324;5.122;2022-07-30T10:34:42;5.75;;;1.92;;
67274;SDS011;55463;52.324;5.122;2022-07-30T10:37:08;2.45;;;1.80;;
67274;SDS011;55463;52.324;5.122;2022-07-30T10:39:36;5.95;;;2.10;;
67274;SDS011;55463;52.324;5.122;2022-07-30T10:42:10;3.17;;;1.55;;
67274;SDS011;55463;52.324;5.122;2022-07-30T10:44:55;5.63;;;1.88;;
67274;SDS011;55463;52.324;5.122;2022-07-30T10:47:32;4.13;;;1.60;;
67274;SDS011;55463;52.324;5.122;2022-07-30T10:50:05;4.60;;;1.80;;
67274;SDS011;55463;52.324;5.122;2022-07-30T10:52:41;4.03;;;1.88;;
67274;SDS011;55463;52.324;5.122;2022-07-30T10:55:11;6.85;;;1.92;;
67274;SDS011;55463;52.324;5.122;2022-07-30T11:00:29;3.70;;;1.90;;
67274;SDS011;55463;52.324;5.122;2022-07-30T11:05:45;6.38;;;2.25;;
67274;SDS011;55463;52.324;5.122;2022-07-30T11:10:53;4.07;;;1.88;;
67274;SDS011;55463;52.324;5.122;2022-07-30T11:13:24;4.65;;;1.98;;
67274;SDS011;55463;52.324;5.122;2022-07-30T11:17:06;4.53;;;1.77;;
67274;SDS011;55463;52.324;5.122;2022-07-30T11:21:42;4.97;;;1.63;;
67274;SDS011;55463;52.324;5.122;2022-07-30T11:27:06;4.68;;;1.95;;
67274;SDS011;55463;52.324;5.122;2022-07-30T11:29:32;4.40;;;1.75;;
67274;SDS011;55463;52.324;5.122;2022-07-30T11:34:49;3.42;;;2.10;;
67274;SDS011;55463;52.324;5.122;2022-07-30T11:37:15;3.20;;;1.80;;
67274;SDS011;55463;52.324;5.122;2022-07-30T11:42:26;1.75;;;1.60;;
67274;SDS011;55463;52.324;5.122;2022-07-30T11:47:43;1.70;;;1.60;;
67274;SDS011;55463;52.324;5.122;2022-07-30T11:50:16;2.08;;;1.40;;
67274;SDS011;55463;52.324;5.122;2022-07-30T11:52:42;4.60;;;1.73;;
67274;SDS011;55463;52.324;5.122;2022-07-30T11:55:12;1.70;;;1.40;;
67274;SDS011;55463;52.324;5.122;2022-07-30T11:57:47;2.53;;;1.38;;
67274;SDS011;55463;52.324;5.122;2022-07-30T12:00:12;6.95;;;2.15;;
67274;SDS011;55463;52.324;5.122;2022-07-30T12:02:38;6.80;;;1.80;;
67274;SDS011;55463;52.324;5.122;2022-07-30T12:05:03;3.35;;;1.40;;
67274;SDS011;55463;52.324;5.122;2022-07-30T12:07:29;3.08;;;1.50;;
67274;SDS011;55463;52.324;5.122;2022-07-30T12:10:10;1.45;;;1.30;;
67274;SDS011;55463;52.324;5.122;2022-07-30T12:12:43;10.75;;;1.92;;
67274;SDS011;55463;52.324;5.122;2022-07-30T12:15:09;3.45;;;1.40;;
67274;SDS011;55463;52.324;5.122;2022-07-30T12:17:42;5.60;;;1.63;;
67274;SDS011;55463;52.324;5.122;2022-07-30T12:20:16;4.20;;;1.60;;
67274;SDS011;55463;52.324;5.122;2022-07-30T12:22:42;3.33;;;1.88;;
67274;SDS011;55463;52.324;5.122;2022-07-30T12:25:09;6.57;;;1.60;;
67274;SDS011;55463;52.324;5.122;2022-07-30T12:27:35;2.70;;;1.50;;
67274;SDS011;55463;52.324;5.122;2022-07-30T12:30:01;3.38;;;1.45;;
67274;SDS011;55463;52.324;5.122;2022-07-30T12:32:27;2.75;;;1.30;;
67274;SDS011;55463;52.324;5.122;2022-07-30T12:34:55;5.90;;;1.55;;
67274;SDS011;55463;52.324;5.122;2022-07-30T12:37:21;5.88;;;1.75;;
67274;SDS011;55463;52.324;5.122;2022-07-30T12:39:46;5.80;;;1.45;;
67274;SDS011;55463;52.324;5.122;2022-07-30T12:42:17;1.35;;;1.25;;
67274;SDS011;55463;52.324;5.122;2022-07-30T12:44:43;2.10;;;1.73;;
67274;SDS011;55463;52.324;5.122;2022-07-30T12:47:19;3.15;;;1.73;;
67274;SDS011;55463;52.324;5.122;2022-07-30T12:49:48;6.07;;;1.77;;
67274;SDS011;55463;52.324;5.122;2022-07-30T12:52:22;2.03;;;1.50;;
67274;SDS011;55463;52.324;5.122;2022-07-30T13:03:21;2.63;;;1.60;;
67274;SDS011;55463;52.324;5.122;2022-07-30T13:05:49;2.67;;;1.73;;
67274;SDS011;55463;52.324;5.122;2022-07-30T13:08:16;1.90;;;1.70;;
67274;SDS011;55463;52.324;5.122;2022-07-30T13:10:57;3.60;;;1.70;;
67274;SDS011;55463;52.324;5.122;2022-07-30T13:13:27;3.65;;;1.73;;
67274;SDS011;55463;52.324;5.122;2022-07-30T13:16:00;6.03;;;1.77;;
67274;SDS011;55463;52.324;5.122;2022-07-30T13:18:27;8.90;;;1.90;;
67274;SDS011;55463;52.324;5.122;2022-07-30T13:20:54;6.00;;;1.75;;
67274;SDS011;55463;52.324;5.122;2022-07-30T13:23:20;6.72;;;2.22;;
67274;SDS011;55463;52.324;5.122;2022-07-30T13:25:46;5.40;;;1.70;;
67274;SDS011;55463;52.324;5.122;2022-07-30T13:28:11;6.30;;;2.22;;
67274;SDS011;55463;52.324;5.122;2022-07-30T13:30:37;5.65;;;1.90;;
67274;SDS011;55463;52.324;5.122;2022-07-30T13:33:02;5.70;;;1.70;;
67274;SDS011;55463;52.324;5.122;2022-07-30T13:35:27;6.75;;;1.70;;
67274;SDS011;55463;52.324;5.122;2022-07-30T13:37:53;6.35;;;1.90;;
67274;SDS011;55463;52.324;5.122;2022-07-30T13:40:18;7.05;;;1.80;;
67274;SDS011;55463;52.324;5.122;2022-07-30T13:42:44;2.28;;;1.50;;
67274;SDS011;55463;52.324;5.122;2022-07-30T13:45:09;5.85;;;1.50;;
67274;SDS011;55463;52.324;5.122;2022-07-30T13:47:34;2.83;;;1.60;;
67274;SDS011;55463;52.324;5.122;2022-07-30T13:50:00;4.03;;;1.60;;
67274;SDS011;55463;52.324;5.122;2022-07-30T13:52:25;3.72;;;1.40;;
67274;SDS011;55463;52.324;5.122;2022-07-30T13:54:51;4.03;;;1.52;;
67274;SDS011;55463;52.324;5.122;2022-07-30T13:57:17;8.98;;;1.83;;
67274;SDS011;55463;52.324;5.122;2022-07-30T13:59:43;4.05;;;1.70;;
67274;SDS011;55463;52.324;5.122;2022-07-30T14:02:08;5.75;;;2.00;;
67274;SDS011;55463;52.324;5.122;2022-07-30T14:04:33;6.60;;;1.80;;
67274;SDS011;55463;52.324;5.122;2022-07-30T14:06:59;4.22;;;1.70;;
67274;SDS011;55463;52.324;5.122;2022-07-30T14:09:24;3.58;;;1.50;;
67274;SDS011;55463;52.324;5.122;2022-07-30T14:11:50;7.32;;;1.75;;
67274;SDS011;55463;52.324;5.122;2022-07-30T14:14:15;2.95;;;1.70;;
67274;SDS011;55463;52.324;5.122;2022-07-30T14:16:41;4.50;;;1.60;;
67274;SDS011;55463;52.324;5.122;2022-07-30T14:19:06;2.83;;;1.70;;
67274;SDS011;55463;52.324;5.122;2022-07-30T14:21:32;3.80;;;1.77;;
67274;SDS011;55463;52.324;5.122;2022-07-30T14:23:57;4.35;;;1.50;;
67274;SDS011;55463;52.324;5.122;2022-07-30T14:26:22;2.95;;;2.08;;
67274;SDS011;55463;52.324;5.122;2022-07-30T14:28:48;3.35;;;1.60;;
67274;SDS011;55463;52.324;5.122;2022-07-30T14:31:13;6.40;;;2.70;;
67274;SDS011;55463;52.324;5.122;2022-07-30T14:33:39;3.75;;;2.42;;
67274;SDS011;55463;52.324;5.122;2022-07-30T14:36:04;7.28;;;3.10;;
67274;SDS011;55463;52.324;5.122;2022-07-30T14:38:30;6.60;;;2.70;;
67274;SDS011;55463;52.324;5.122;2022-07-30T14:40:55;4.03;;;1.95;;
67274;SDS011;55463;52.324;5.122;2022-07-30T14:43:20;3.83;;;1.50;;
67274;SDS011;55463;52.324;5.122;2022-07-30T14:45:46;3.50;;;1.55;;
67274;SDS011;55463;52.324;5.122;2022-07-30T14:48:14;8.00;;;1.67;;
67274;SDS011;55463;52.324;5.122;2022-07-30T14:50:40;4.03;;;1.35;;
67274;SDS011;55463;52.324;5.122;2022-07-30T14:53:06;2.25;;;1.95;;
67274;SDS011;55463;52.324;5.122;2022-07-30T14:55:31;5.38;;;1.63;;
67274;SDS011;55463;52.324;5.122;2022-07-30T14:57:56;5.03;;;1.60;;
67274;SDS011;55463;52.324;5.122;2022-07-30T15:00:22;1.92;;;1.58;;
67274;SDS011;55463;52.324;5.122;2022-07-30T15:02:47;3.42;;;1.70;;
67274;SDS011;55463;52.324;5.122;2022-07-30T15:05:13;2.47;;;1.60;;
67274;SDS011;55463;52.324;5.122;2022-07-30T15:07:38;2.78;;;1.45;;
67274;SDS011;55463;52.324;5.122;2022-07-30T15:10:04;4.93;;;1.63;;
67274;SDS011;55463;52.324;5.122;2022-07-30T15:12:31;3.47;;;1.73;;
67274;SDS011;55463;52.324;5.122;2022-07-30T15:14:56;5.68;;;2.03;;
67274;SDS011;55463;52.324;5.122;2022-07-30T15:17:22;5.90;;;1.95;;
67274;SDS011;55463;52.324;5.122;2022-07-30T15:19:47;3.90;;;1.70;;
67274;SDS011;55463;52.324;5.122;2022-07-30T15:22:15;6.43;;;1.75;;
67274;SDS011;55463;52.324;5.122;2022-07-30T15:24:40;3.85;;;1.55;;
67274;SDS011;55463;52.324;5.122;2022-07-30T15:27:06;2.53;;;1.80;;
67274;SDS011;55463;52.324;5.122;2022-07-30T15:29:31;6.43;;;1.80;;
67274;SDS011;55463;52.324;5.122;2022-07-30T15:31:57;9.20;;;2.60;;
67274;SDS011;55463;52.324;5.122;2022-07-30T15:34:23;3.10;;;1.50;;
67274;SDS011;55463;52.324;5.122;2022-07-30T15:36:49;7.05;;;1.80;;
67274;SDS011;55463;52.324;5.122;2022-07-30T15:39:15;8.02;;;1.70;;
67274;SDS011;55463;52.324;5.122;2022-07-30T15:41:40;5.57;;;1.85;;
67274;SDS011;55463;52.324;5.122;2022-07-30T15:44:06;6.03;;;1.92;;
67274;SDS011;55463;52.324;5.122;2022-07-30T15:46:31;3.97;;;1.73;;
67274;SDS011;55463;52.324;5.122;2022-07-30T15:48:56;10.90;;;1.95;;
67274;SDS011;55463;52.324;5.122;2022-07-30T15:51:22;6.78;;;2.20;;